x

South Georgian Bay (45143) Wave Buoy

1:00am - Thu 25th May 2017 All times are CDT. -5 hours from GMT.

  • Sig Wave height 0.7ft
  • Peak Period 2s
  • Wind
    13mph, 16mph gusts
  • Sea Temp 39°f
  • Air Temp 47°f
  • Sea Pressure 1003.6mb
  • South Georgian Bay
  • South Georgian Bay

More Historic Weather Station data

Upgrade to MSW Pro to gain access to the past 30 days of data for over 8000 Wavebouys and Weather Stations around the globe.

Join Pro

Comparision Forecast

View Surf forecast
   
Thu 05/25 1:00am 0.7ft 2s 13 16 mph 1003.6mb 39f 47f
12:00am 0.7ft 2s 13 13 mph 1004.5mb 39f 47f
Wed 05/24 11:00pm 0.7ft 2s 9 9 mph 1004.6mb 39f 46f
10:00pm 1ft 3s 9 13 mph 1004.7mb 39f 46f
9:00pm 1ft 3s 11 13 mph 1004.8mb 39f 48f
8:00pm 1ft 2s 11 13 mph 1004.6mb 39f 47f
7:00pm 0.7ft 2s 13 16 mph 1004.2mb 39f 49f
6:00pm 0.7ft 2s 9 9 mph 1004.7mb 39f 48f
5:00pm 0.7ft 2s 11 13 mph 1004.6mb 39f 47f
4:00pm 0.7ft 2s 11 13 mph 1004.4mb 39f 47f
3:00pm 0.7ft 2s 13 16 mph 1004.4mb 39f 48f
2:00pm 0.3ft 2s 13 13 mph 1005mb 39f 47f
1:00pm 0.3ft 2s 11 13 mph 1005.1mb 39f 46f
12:00pm 0.3ft 7s 7 9 mph 1005.9mb 39f 45f
11:00am 0.3ft 7s 11 13 mph 1006.3mb 39f 45f
10:00am 0.3ft 7s 9 9 mph 1006.8mb 39f 44f
9:00am 0.3ft 7s 9 9 mph 1006.7mb 39f 43f
8:00am 0.3ft 6s 7 7 mph 1007.1mb 39f 44f
7:00am 0.3ft 7s 7 7 mph 1006.9mb 39f 44f
6:00am 0.3ft 6s 7 7 mph 1006.9mb 39f 42f
5:00am 0.3ft 6s 4 4 mph 1006.9mb 39f 44f
4:00am 0.3ft 6s 4 4 mph 1007.1mb 39f 44f
3:00am 0.3ft 6s 4 4 mph 1007.6mb 39f 42f
2:00am 0.3ft 6s 4 4 mph 1007.6mb 39f 41f
1:00am 0.3ft 6s 7 7 mph 1007.4mb 39f 42f
12:00am 0.3ft 6s 2 4 mph 1008.1mb 39f 44f
Tue 05/23 11:00pm 0.3ft 8s 2 4 mph 1008.2mb 39f 46f
10:00pm 0.3ft 8s 2 4 mph 1008.7mb 39f 45f
9:00pm 0.3ft 9s 2 4 mph 1009.1mb 39f 45f
8:00pm 0.3ft 8s 2 2 mph 1009.4mb 39f 43f
7:00pm 0.3ft 10s 4 7 mph 1009.2mb 39f 45f
6:00pm 0.3ft 10s 4 7 mph 1009.5mb 39f 44f
5:00pm 0.3ft 9s 4 4 mph 1009.7mb 39f 45f
4:00pm 0.3ft 10s 7 7 mph 1009.5mb 39f 46f
3:00pm 0.3ft 10s 4 4 mph 1009.8mb 39f 44f
2:00pm 0.3ft 2s 4 7 mph 1010.4mb 39f 43f
1:00pm 0.3ft 8s 4 4 mph 1010.6mb 39f 43f
12:00pm 0.3ft 7s 4 4 mph 1010.8mb 39f 45f
11:00am 0.3ft 2s 4 4 mph 1011.3mb 40f 45f
10:00am 0.3ft 2s 4 9 mph 1011.4mb 39f 47f
9:00am 0.3ft 2s 2 4 mph 1011.4mb 39f 45f
8:00am 0.3ft 2s 9 9 mph 1011.2mb 39f 44f
7:00am 0.7ft 2s 4 7 mph 1011mb 39f 44f
6:00am 0.7ft 2s 7 7 mph 1011.1mb 39f 43f
5:00am 0.7ft 2s 11 11 mph 1010.9mb 39f 44f
4:00am 0.3ft 2s 9 11 mph 1011mb 39f 44f
3:00am 0.3ft 4s 7 9 mph 1011.5mb 39f 43f
2:00am 0.3ft 4s 7 9 mph 1011.9mb 39f 42f
1:00am 0.3ft 3s 9 11 mph 1012.2mb 39f 43f
12:00am 0.3ft 4s 9 9 mph 1012.7mb 39f 43f
Mon 05/22 11:00pm 0.3ft 2s 4 7 mph 1013.5mb 39f 43f
10:00pm 0.7ft 3s 7 9 mph 1013.8mb 39f 43f
9:00pm 0.7ft 3s 4 7 mph 1014mb 39f 43f
8:00pm 1ft 3s 4 9 mph 1013.8mb 39f 44f
7:00pm 1.3ft 3s 4 7 mph 1013.6mb 39f 45f
6:00pm 1.3ft 3s 7 9 mph 1013.2mb 39f 45f
5:00pm 1.6ft 3s 13 13 mph 1013mb 39f 46f
4:00pm 1.3ft 3s 11 16 mph 1012.7mb 39f 46f
3:00pm 1.6ft 3s 11 11 mph 1012.9mb 39f 46f
2:00pm 2ft 4s 11 16 mph 1012.9mb 39f 45f
1:00pm 2.5ft 4s 13 16 mph 1013mb 39f 45f
12:00pm 1.6ft 3s 16 18 mph 1012.8mb 39f 45f
11:00am 1ft 3s 13 16 mph 1012.8mb 39f 45f
10:00am 0.7ft 2s 9 9 mph 1012.7mb 39f 44f
9:00am 0.7ft 2s 7 9 mph 1012.8mb 39f 44f
8:00am 0.7ft 2s 9 11 mph 1012.7mb 39f 45f
7:00am 0.7ft 2s 11 13 mph 1012.5mb 39f 45f
6:00am 0.7ft 3s 9 9 mph 1011.9mb 39f 44f
5:00am 1ft 3s 7 9 mph 1011.7mb 39f 43f
4:00am 1ft 3s 11 13 mph 1011.7mb 39f 45f
3:00am 1.3ft 3s 9 9 mph 1011.7mb 39f 43f
2:00am 1.3ft 4s 9 9 mph 1011.7mb 39f 45f
1:00am 1.3ft 4s 13 16 mph 1011.8mb 39f 46f
12:00am 1.6ft 4s 11 13 mph 1011.1mb 39f 46f
Sun 05/21 11:00pm 2ft 4s 11 13 mph 1010.9mb 39f 44f
10:00pm 2.5ft 4s 13 13 mph 1010.9mb 39f 45f
9:00pm 2.5ft 4s 13 16 mph 1011.2mb 39f 45f
8:00pm  -   -  18
mph
1011.7mb - 46f
7:00pm 3.5ft 4s 18 20 mph 1011.9mb 39f 47f
6:00pm 3.5ft 4s 18 20 mph 1012.4mb 39f 47f
5:00pm 3ft 4s 18 20 mph 1013.1mb 39f 46f
3:00pm 3.5ft 5s 13 16 mph 1013.7mb 39f 45f
2:00pm 3.5ft 4s 20 25 mph 1014mb 38f 46f
1:00pm 3.5ft 5s 20 25 mph 1015.1mb 38f 46f
12:00pm 3.5ft 4s 20 25 mph 1015.8mb 38f 46f
11:00am 3ft 5s 18 20 mph 1016.6mb 38f 45f
10:00am 3ft 5s 18 22 mph 1017.1mb 38f 45f
9:00am 2.5ft 4s 20 22 mph 1017.4mb 38f 44f